This is the latest recevied weather packets stored in our database for station/object HS2XQB-3. If no packets are shown the sender has not sent any weather packets the latest 10 day(s).
| Time | Temp. | Humidity | Pressure | Rain* | Wind** | Luminosity | Snow |
|---|---|---|---|---|---|---|---|
| 1777775254 | 24.44° C | 47% | 1007 hPa | - | - | 0 W/m² | - |
| 1777773432 | 24.44° C | 52% | 1006 hPa | - | - | 0 W/m² | - |
| 1777771610 | 25° C | 47% | 1006 hPa | - | - | 0 W/m² | - |
| 1777769787 | 24.44° C | 51% | 1006 hPa | - | - | 0 W/m² | - |
| 1777767967 | 25° C | 62% | 1006 hPa | - | - | 0 W/m² | - |
| 1777766143 | 23.89° C | 68% | 1005 hPa | - | - | 0 W/m² | - |
| 1777764320 | 23.33° C | 71% | 1005 hPa | - | - | 0 W/m² | - |
| 1777762498 | 24.44° C | 81% | 1005 hPa | - | - | 0 W/m² | - |
| 1777760676 | 23.89° C | 73% | 1004 hPa | - | - | 0 W/m² | - |
| 1777758854 | 23.89° C | 80% | 1004 hPa | - | - | 0 W/m² | - |
| 1777757034 | 23.89° C | 70% | 1004 hPa | - | - | 0 W/m² | - |
| 1777755210 | 24.44° C | 80% | 1004 hPa | - | - | 0 W/m² | - |
| 1777753388 | 23.33° C | 73% | 1004 hPa | - | - | 0 W/m² | - |
| 1777751566 | 24.44° C | 79% | 1004 hPa | - | - | 0 W/m² | - |
| 1777749744 | 23.89° C | 69% | 1004 hPa | - | - | 0 W/m² | - |
| 1777747922 | 24.44° C | 77% | 1004 hPa | - | - | 0 W/m² | - |
| 1777746100 | 24.44° C | 72% | 1004 hPa | - | - | 0 W/m² | - |
| 1777744278 | 23.33° C | 67% | 1004 hPa | - | - | 0 W/m² | - |
| 1777742457 | 24.44° C | 75% | 1005 hPa | - | - | 0 W/m² | - |
| 1777740634 | 23.89° C | 67% | 1005 hPa | - | - | 0 W/m² | - |
| 1777738812 | 24.44° C | 74% | 1005 hPa | - | - | 0 W/m² | - |
| 1777736990 | 24.44° C | 69% | 1006 hPa | - | - | 0 W/m² | - |
| 1777735168 | 23.89° C | 68% | 1006 hPa | - | - | 0 W/m² | - |
| 1777733345 | 24.44° C | 73% | 1005 hPa | - | - | 0 W/m² | - |
| 1777731528 | 23.89° C | 62% | 1005 hPa | - | - | 0 W/m² | - |
* Rain since midnight (hover to see other rain measurements)
** Current wind speed in m/s (hover to see current wind gust speed)